Kurganinsk, Russia
Current Conditions -  °F | °C
As of 1:30 PM on Friday 24 Oct 2014 (Local Time) from URMT Reporting Station
Freezing Drizzle Freezing Drizzle  
Wind Chill: 22°   Ceiling: 100
Heat Index: 30°   Visibility: 0.06mi
Dew Point: 30°   Wind: 9mph
Humidity: 100%   Direction: 90°E
Pressure: 30.12"   Gusts: 16mph
Location:  44.88°N, 40.6°E
Report Text: URMT 241030Z 09004G07MPS 0100 R07/M0300N FZDZ FZFG VV001M01/M01 Q1020 NOSIG RMK QBB040 OBST OBSC QFE725 SC055
Loading
Personal Weather Stations






























Interactive Weather Map
Tropical Storm Tracking
New forecast layout! Learn more

10-Day Weather Forecast

Advertisements
Track Severe Weather on mobile